sensor_id;sensor_type;location;lat;lon;timestamp;pressure;altitude;pressure_sealevel;temperature;humidity
13011;BME280;6786;57.632;11.962;2023-05-24T00:01:12;100995.69;;;19.59;51.54
13011;BME280;6786;57.632;11.962;2023-05-24T00:03:42;100968.53;;;19.43;51.71
13011;BME280;6786;57.632;11.962;2023-05-24T00:06:12;100994.00;;;19.58;51.68
13011;BME280;6786;57.632;11.962;2023-05-24T00:08:44;100992.28;;;19.57;51.73
13011;BME280;6786;57.632;11.962;2023-05-24T00:11:12;100997.66;;;19.57;51.76
13011;BME280;6786;57.632;11.962;2023-05-24T00:13:40;101002.06;;;19.58;51.77
13011;BME280;6786;57.632;11.962;2023-05-24T00:16:09;101001.31;;;19.56;51.80
13011;BME280;6786;57.632;11.962;2023-05-24T00:18:37;100996.81;;;19.57;51.77
13011;BME280;6786;57.632;11.962;2023-05-24T00:21:06;100923.69;;;19.13;51.70
13011;BME280;6786;57.632;11.962;2023-05-24T00:23:35;100984.06;;;19.49;51.78
13011;BME280;6786;57.632;11.962;2023-05-24T00:26:05;100997.09;;;19.54;51.61
13011;BME280;6786;57.632;11.962;2023-05-24T00:28:34;101001.31;;;19.56;51.70
13011;BME280;6786;57.632;11.962;2023-05-24T00:31:02;100999.63;;;19.55;51.68
13011;BME280;6786;57.632;11.962;2023-05-24T00:33:30;101004.00;;;19.56;51.61
13011;BME280;6786;57.632;11.962;2023-05-24T00:35:59;101001.31;;;19.56;51.63
13011;BME280;6786;57.632;11.962;2023-05-24T00:38:27;101000.47;;;19.56;51.63
13011;BME280;6786;57.632;11.962;2023-05-24T00:40:55;101006.69;;;19.56;51.58
13011;BME280;6786;57.632;11.962;2023-05-24T00:43:27;101014.72;;;19.56;51.63
13011;BME280;6786;57.632;11.962;2023-05-24T00:46:11;101010.38;;;19.55;51.61
13011;BME280;6786;57.632;11.962;2023-05-24T00:48:41;101012.19;;;19.55;51.77
13011;BME280;6786;57.632;11.962;2023-05-24T00:51:11;101003.28;;;19.54;51.74
13011;BME280;6786;57.632;11.962;2023-05-24T00:53:40;101010.38;;;19.55;51.60
13011;BME280;6786;57.632;11.962;2023-05-24T00:56:10;100985.81;;;19.39;51.49
13011;BME280;6786;57.632;11.962;2023-05-24T00:58:41;101014.00;;;19.54;51.49
13011;BME280;6786;57.632;11.962;2023-05-24T01:01:10;100993.03;;;19.38;51.52
13011;BME280;6786;57.632;11.962;2023-05-24T01:03:38;101025.59;;;19.55;51.54
13011;BME280;6786;57.632;11.962;2023-05-24T01:06:07;101022.03;;;19.54;51.65
13011;BME280;6786;57.632;11.962;2023-05-24T01:08:45;101025.59;;;19.55;51.59
13011;BME280;6786;57.632;11.962;2023-05-24T01:11:23;101024.72;;;19.54;51.57
13011;BME280;6786;57.632;11.962;2023-05-24T01:14:05;100943.44;;;19.12;51.50
13011;BME280;6786;57.632;11.962;2023-05-24T01:16:44;101021.34;;;19.52;51.55
13011;BME280;6786;57.632;11.962;2023-05-24T01:19:39;101028.41;;;19.53;51.59
13011;BME280;6786;57.632;11.962;2023-05-24T01:22:20;101028.66;;;19.50;51.53
13011;BME280;6786;57.632;11.962;2023-05-24T01:24:57;100998.31;;;19.29;51.57
13011;BME280;6786;57.632;11.962;2023-05-24T01:27:32;101037.44;;;19.52;51.52
13011;BME280;6786;57.632;11.962;2023-05-24T01:30:02;101033.75;;;19.53;51.52
13011;BME280;6786;57.632;11.962;2023-05-24T01:32:30;101042.78;;;19.52;51.55
13011;BME280;6786;57.632;11.962;2023-05-24T01:34:59;101027.22;;;19.46;51.41
13011;BME280;6786;57.632;11.962;2023-05-24T01:37:28;101039.13;;;19.53;51.53
13011;BME280;6786;57.632;11.962;2023-05-24T01:39:56;101022.13;;;19.43;51.58
13011;BME280;6786;57.632;11.962;2023-05-24T01:42:26;101023.22;;;19.40;51.46
13011;BME280;6786;57.632;11.962;2023-05-24T01:45:04;101039.13;;;19.53;51.48
13011;BME280;6786;57.632;11.962;2023-05-24T01:47:43;101029.25;;;19.54;51.55
13011;BME280;6786;57.632;11.962;2023-05-24T01:50:19;101023.03;;;19.53;51.42
13011;BME280;6786;57.632;11.962;2023-05-24T01:52:52;101010.88;;;19.49;51.42
13011;BME280;6786;57.632;11.962;2023-05-24T01:55:22;101016.81;;;19.52;51.46
13011;BME280;6786;57.632;11.962;2023-05-24T01:57:52;101016.00;;;19.52;51.45
13011;BME280;6786;57.632;11.962;2023-05-24T02:00:27;101022.19;;;19.52;51.38
13011;BME280;6786;57.632;11.962;2023-05-24T02:02:56;101024.97;;;19.51;51.47
13011;BME280;6786;57.632;11.962;2023-05-24T02:05:25;101032.06;;;19.52;51.44
13011;BME280;6786;57.632;11.962;2023-05-24T02:07:53;101022.31;;;19.51;51.40
13011;BME280;6786;57.632;11.962;2023-05-24T02:10:21;100994.38;;;19.33;51.26
13011;BME280;6786;57.632;11.962;2023-05-24T02:12:50;101033.75;;;19.53;51.41
13011;BME280;6786;57.632;11.962;2023-05-24T02:15:18;101020.88;;;19.47;51.36
13011;BME280;6786;57.632;11.962;2023-05-24T02:17:47;101032.06;;;19.52;51.40
13011;BME280;6786;57.632;11.962;2023-05-24T02:20:17;100964.75;;;19.14;51.35
13011;BME280;6786;57.632;11.962;2023-05-24T02:22:48;101023.56;;;19.47;51.46
13011;BME280;6786;57.632;11.962;2023-05-24T02:25:16;100947.28;;;18.99;51.26
13011;BME280;6786;57.632;11.962;2023-05-24T02:27:44;101039.38;;;19.50;51.33
13011;BME280;6786;57.632;11.962;2023-05-24T02:30:13;101005.72;;;19.36;51.30
13011;BME280;6786;57.632;11.962;2023-05-24T02:32:41;101039.38;;;19.50;51.34
13011;BME280;6786;57.632;11.962;2023-05-24T02:35:11;101039.38;;;19.50;51.29
13011;BME280;6786;57.632;11.962;2023-05-24T02:37:39;101043.75;;;19.51;51.34
13011;BME280;6786;57.632;11.962;2023-05-24T02:40:08;101040.25;;;19.51;51.26
13011;BME280;6786;57.632;11.962;2023-05-24T02:42:37;101040.25;;;19.51;51.31
13011;BME280;6786;57.632;11.962;2023-05-24T02:45:06;101028.66;;;19.50;51.28
13011;BME280;6786;57.632;11.962;2023-05-24T02:47:34;101033.03;;;19.51;51.33
13011;BME280;6786;57.632;11.962;2023-05-24T02:50:04;101035.72;;;19.51;51.38
13011;BME280;6786;57.632;11.962;2023-05-24T02:52:34;100991.50;;;19.25;51.29
13011;BME280;6786;57.632;11.962;2023-05-24T02:55:03;101038.53;;;19.49;51.08
13011;BME280;6786;57.632;11.962;2023-05-24T02:57:31;101045.72;;;19.49;51.31
13011;BME280;6786;57.632;11.962;2023-05-24T03:00:00;101046.44;;;19.51;51.28
13011;BME280;6786;57.632;11.962;2023-05-24T03:02:30;101046.44;;;19.51;51.21
13011;BME280;6786;57.632;11.962;2023-05-24T03:04:59;101038.38;;;19.51;51.26
13011;BME280;6786;57.632;11.962;2023-05-24T03:07:27;101029.44;;;19.41;51.17
13011;BME280;6786;57.632;11.962;2023-05-24T03:09:57;101051.78;;;19.51;51.21
13011;BME280;6786;57.632;11.962;2023-05-24T03:12:25;101032.38;;;19.38;51.12
13011;BME280;6786;57.632;11.962;2023-05-24T03:14:53;101045.72;;;19.49;51.26
13011;BME280;6786;57.632;11.962;2023-05-24T03:17:22;101058.03;;;19.52;51.15
13011;BME280;6786;57.632;11.962;2023-05-24T03:19:50;101051.78;;;19.51;51.11
13011;BME280;6786;57.632;11.962;2023-05-24T03:22:18;101058.88;;;19.52;51.10
13011;BME280;6786;57.632;11.962;2023-05-24T03:24:47;101020.09;;;19.35;51.12
13011;BME280;6786;57.632;11.962;2023-05-24T03:27:17;101048.16;;;19.52;51.22
13011;BME280;6786;57.632;11.962;2023-05-24T03:29:45;101046.44;;;19.51;51.03
13011;BME280;6786;57.632;11.962;2023-05-24T03:32:13;101039.38;;;19.50;51.14
13011;BME280;6786;57.632;11.962;2023-05-24T03:34:41;101044.75;;;19.50;51.11
13011;BME280;6786;57.632;11.962;2023-05-24T03:37:09;101050.09;;;19.50;51.14
13011;BME280;6786;57.632;11.962;2023-05-24T03:39:37;101056.31;;;19.51;51.27
13011;BME280;6786;57.632;11.962;2023-05-24T03:42:06;101051.78;;;19.51;51.08
13011;BME280;6786;57.632;11.962;2023-05-24T03:44:36;101038.47;;;19.40;51.08
13011;BME280;6786;57.632;11.962;2023-05-24T03:47:06;101057.16;;;19.51;51.04
13011;BME280;6786;57.632;11.962;2023-05-24T03:49:34;101062.53;;;19.51;51.07
13011;BME280;6786;57.632;11.962;2023-05-24T03:52:02;101066.94;;;19.52;51.05
13011;BME280;6786;57.632;11.962;2023-05-24T03:54:30;101070.56;;;19.51;50.79
13011;BME280;6786;57.632;11.962;2023-05-24T03:56:58;101032.91;;;19.32;50.99
13011;BME280;6786;57.632;11.962;2023-05-24T03:59:28;101064.25;;;19.52;51.10
13011;BME280;6786;57.632;11.962;2023-05-24T04:01:57;101074.97;;;19.52;51.06
13011;BME280;6786;57.632;11.962;2023-05-24T04:04:26;101067.88;;;19.51;51.04
13011;BME280;6786;57.632;11.962;2023-05-24T04:06:54;101062.53;;;19.51;50.92
13011;BME280;6786;57.632;11.962;2023-05-24T04:09:23;101058.88;;;19.52;50.98
13011;BME280;6786;57.632;11.962;2023-05-24T04:11:52;101062.53;;;19.51;51.06
13011;BME280;6786;57.632;11.962;2023-05-24T04:14:20;101064.25;;;19.52;50.71
13011;BME280;6786;57.632;11.962;2023-05-24T04:16:48;101067.88;;;19.51;50.99
13011;BME280;6786;57.632;11.962;2023-05-24T04:19:19;101062.53;;;19.51;51.01
13011;BME280;6786;57.632;11.962;2023-05-24T04:21:47;101060.69;;;19.52;51.11
13011;BME280;6786;57.632;11.962;2023-05-24T04:24:15;101059.66;;;19.43;51.03
13011;BME280;6786;57.632;11.962;2023-05-24T04:26:44;101080.31;;;19.52;51.01
13011;BME280;6786;57.632;11.962;2023-05-24T04:29:13;101081.28;;;19.51;51.04
13011;BME280;6786;57.632;11.962;2023-05-24T04:31:41;101081.66;;;19.46;51.02
13011;BME280;6786;57.632;11.962;2023-05-24T04:34:10;101093.72;;;19.52;51.05
13011;BME280;6786;57.632;11.962;2023-05-24T04:36:41;101088.50;;;19.51;51.08
13011;BME280;6786;57.632;11.962;2023-05-24T04:39:10;101088.50;;;19.51;50.97
13011;BME280;6786;57.632;11.962;2023-05-24T04:41:38;101098.22;;;19.52;50.91
13011;BME280;6786;57.632;11.962;2023-05-24T04:44:06;101100.06;;;19.51;50.99
13011;BME280;6786;57.632;11.962;2023-05-24T04:46:35;101015.72;;;19.03;51.00
13011;BME280;6786;57.632;11.962;2023-05-24T04:49:06;101103.72;;;19.50;51.05
13011;BME280;6786;57.632;11.962;2023-05-24T04:51:34;101106.41;;;19.50;51.15
13011;BME280;6786;57.632;11.962;2023-05-24T04:54:06;101099.47;;;19.48;51.08
13011;BME280;6786;57.632;11.962;2023-05-24T04:56:35;101069.44;;;19.33;51.03
13011;BME280;6786;57.632;11.962;2023-05-24T04:59:05;101109.94;;;19.51;51.18
13011;BME280;6786;57.632;11.962;2023-05-24T05:01:34;101114.44;;;19.50;51.00
13011;BME280;6786;57.632;11.962;2023-05-24T05:04:02;101094.38;;;19.44;51.28
13011;BME280;6786;57.632;11.962;2023-05-24T05:06:31;101104.59;;;19.51;51.16
13011;BME280;6786;57.632;11.962;2023-05-24T05:09:05;101086.72;;;19.40;51.31
13011;BME280;6786;57.632;11.962;2023-05-24T05:11:36;101078.47;;;19.32;51.19
13011;BME280;6786;57.632;11.962;2023-05-24T05:14:04;101110.78;;;19.51;51.02
13011;BME280;6786;57.632;11.962;2023-05-24T05:16:35;101089.84;;;19.45;51.06
13011;BME280;6786;57.632;11.962;2023-05-24T05:19:04;101090.97;;;19.42;51.29
13011;BME280;6786;57.632;11.962;2023-05-24T05:21:33;101103.72;;;19.50;51.41
13011;BME280;6786;57.632;11.962;2023-05-24T05:24:02;101103.72;;;19.50;51.21
13011;BME280;6786;57.632;11.962;2023-05-24T05:26:32;101036.41;;;19.01;51.17
13011;BME280;6786;57.632;11.962;2023-05-24T05:29:01;101108.22;;;19.49;51.18
13011;BME280;6786;57.632;11.962;2023-05-24T05:31:29;101119.81;;;19.50;51.20
13011;BME280;6786;57.632;11.962;2023-05-24T05:33:57;101110.06;;;19.49;51.18
13011;BME280;6786;57.632;11.962;2023-05-24T05:36:26;101106.41;;;19.50;51.21
13011;BME280;6786;57.632;11.962;2023-05-24T05:38:54;101111.63;;;19.52;51.22
13011;BME280;6786;57.632;11.962;2023-05-24T05:41:22;101105.94;;;19.45;51.40
13011;BME280;6786;57.632;11.962;2023-05-24T05:43:52;101114.31;;;19.52;51.22
13011;BME280;6786;57.632;11.962;2023-05-24T05:46:20;101124.91;;;19.53;51.35
13011;BME280;6786;57.632;11.962;2023-05-24T05:48:49;101125.78;;;19.54;51.25
13011;BME280;6786;57.632;11.962;2023-05-24T05:51:17;101125.78;;;19.54;51.33
13011;BME280;6786;57.632;11.962;2023-05-24T05:53:45;101133.81;;;19.54;51.33
13011;BME280;6786;57.632;11.962;2023-05-24T05:56:13;101143.69;;;19.53;51.40
13011;BME280;6786;57.632;11.962;2023-05-24T05:58:45;101147.28;;;19.63;51.46
13011;BME280;6786;57.632;11.962;2023-05-24T06:01:15;101139.75;;;19.57;51.58
13011;BME280;6786;57.632;11.962;2023-05-24T06:03:43;101155.81;;;19.68;51.57
13011;BME280;6786;57.632;11.962;2023-05-24T06:06:12;101146.78;;;19.69;51.63
13011;BME280;6786;57.632;11.962;2023-05-24T06:08:40;101144.81;;;19.71;51.59
13011;BME280;6786;57.632;11.962;2023-05-24T06:11:09;101139.47;;;19.71;51.70
13011;BME280;6786;57.632;11.962;2023-05-24T06:13:37;101146.50;;;19.72;51.79
13011;BME280;6786;57.632;11.962;2023-05-24T06:16:07;101114.78;;;19.57;51.79
13011;BME280;6786;57.632;11.962;2023-05-24T06:18:37;101138.34;;;19.74;51.86
13011;BME280;6786;57.632;11.962;2023-05-24T06:21:19;101137.47;;;19.73;51.90
13011;BME280;6786;57.632;11.962;2023-05-24T06:23:48;101122.16;;;19.64;51.99
13011;BME280;6786;57.632;11.962;2023-05-24T06:26:17;101146.25;;;19.75;52.00
13011;BME280;6786;57.632;11.962;2023-05-24T06:28:47;101147.94;;;19.76;51.97
13011;BME280;6786;57.632;11.962;2023-05-24T06:31:15;101146.00;;;19.78;51.99
13011;BME280;6786;57.632;11.962;2023-05-24T06:33:47;101147.69;;;19.79;52.08
13011;BME280;6786;57.632;11.962;2023-05-24T06:36:29;101159.41;;;19.78;52.09
13011;BME280;6786;57.632;11.962;2023-05-24T06:39:00;101158.41;;;19.79;51.97
13011;BME280;6786;57.632;11.962;2023-05-24T06:41:31;101153.44;;;19.75;52.19
13011;BME280;6786;57.632;11.962;2023-05-24T06:44:00;101118.69;;;19.52;52.13
13011;BME280;6786;57.632;11.962;2023-05-24T06:46:29;101176.22;;;19.80;52.11
13011;BME280;6786;57.632;11.962;2023-05-24T06:48:59;101165.25;;;19.83;52.21
13011;BME280;6786;57.632;11.962;2023-05-24T06:51:29;101182.31;;;19.82;52.25
13011;BME280;6786;57.632;11.962;2023-05-24T06:53:59;101157.50;;;19.69;52.23
13011;BME280;6786;57.632;11.962;2023-05-24T06:56:27;101179.63;;;19.82;52.28
13011;BME280;6786;57.632;11.962;2023-05-24T06:58:56;101167.94;;;19.83;52.21
13011;BME280;6786;57.632;11.962;2023-05-24T07:01:24;101168.63;;;19.85;52.32
13011;BME280;6786;57.632;11.962;2023-05-24T07:03:53;101167.66;;;19.86;52.26
13011;BME280;6786;57.632;11.962;2023-05-24T07:06:23;101170.34;;;19.86;52.19
13011;BME280;6786;57.632;11.962;2023-05-24T07:08:51;101169.38;;;19.87;52.20
13011;BME280;6786;57.632;11.962;2023-05-24T07:11:19;101179.09;;;19.88;52.25
13011;BME280;6786;57.632;11.962;2023-05-24T07:13:49;101179.09;;;19.88;52.36
13011;BME280;6786;57.632;11.962;2023-05-24T07:16:17;101180.81;;;19.89;52.30
13011;BME280;6786;57.632;11.962;2023-05-24T07:18:45;101141.94;;;19.63;52.25
13011;BME280;6786;57.632;11.962;2023-05-24T07:21:25;101189.84;;;19.88;52.60
13011;BME280;6786;57.632;11.962;2023-05-24T07:23:53;101190.81;;;19.87;52.45
13011;BME280;6786;57.632;11.962;2023-05-24T07:26:21;101190.34;;;19.82;52.27
13011;BME280;6786;57.632;11.962;2023-05-24T07:28:50;101200.25;;;19.82;52.30
13011;BME280;6786;57.632;11.962;2023-05-24T07:31:18;101198.53;;;19.81;52.37
13011;BME280;6786;57.632;11.962;2023-05-24T07:33:47;101205.88;;;19.79;52.42
13011;BME280;6786;57.632;11.962;2023-05-24T07:36:15;101198.66;;;19.79;52.41
13011;BME280;6786;57.632;11.962;2023-05-24T07:38:45;101201.06;;;19.82;52.30
13011;BME280;6786;57.632;11.962;2023-05-24T07:41:13;101186.00;;;19.70;52.46
13011;BME280;6786;57.632;11.962;2023-05-24T07:43:41;101190.59;;;19.79;52.41
13011;BME280;6786;57.632;11.962;2023-05-24T07:46:10;101213.28;;;19.86;52.39
13011;BME280;6786;57.632;11.962;2023-05-24T07:48:38;101207.91;;;19.86;52.35
13011;BME280;6786;57.632;11.962;2023-05-24T07:51:07;101208.41;;;19.80;52.41
13011;BME280;6786;57.632;11.962;2023-05-24T07:53:48;101202.81;;;19.83;52.79
13011;BME280;6786;57.632;11.962;2023-05-24T07:56:19;101202.81;;;19.83;52.52
13011;BME280;6786;57.632;11.962;2023-05-24T07:58:47;101207.91;;;19.86;52.56
13011;BME280;6786;57.632;11.962;2023-05-24T08:01:17;101213.28;;;19.86;52.43
13011;BME280;6786;57.632;11.962;2023-05-24T08:03:46;101201.59;;;19.76;52.67
13011;BME280;6786;57.632;11.962;2023-05-24T08:06:15;101214.09;;;19.87;52.55
13011;BME280;6786;57.632;11.962;2023-05-24T08:08:44;101204.25;;;19.87;52.60
13011;BME280;6786;57.632;11.962;2023-05-24T08:11:14;101218.38;;;19.89;52.57
13011;BME280;6786;57.632;11.962;2023-05-24T08:13:43;101211.28;;;19.88;52.62
13011;BME280;6786;57.632;11.962;2023-05-24T08:16:42;101207.66;;;19.89;53.12
13011;BME280;6786;57.632;11.962;2023-05-24T08:19:11;101205.94;;;19.88;52.75
13011;BME280;6786;57.632;11.962;2023-05-24T08:21:43;101114.03;;;19.34;52.69
13011;BME280;6786;57.632;11.962;2023-05-24T08:24:11;101203.25;;;19.88;52.85
13011;BME280;6786;57.632;11.962;2023-05-24T08:26:43;101210.47;;;19.88;52.85
13011;BME280;6786;57.632;11.962;2023-05-24T08:29:12;101205.94;;;19.88;52.70
13011;BME280;6786;57.632;11.962;2023-05-24T08:31:43;101188.66;;;19.81;52.68
13011;BME280;6786;57.632;11.962;2023-05-24T08:34:13;101207.66;;;19.89;52.81
13011;BME280;6786;57.632;11.962;2023-05-24T08:36:42;101207.66;;;19.89;52.83
13011;BME280;6786;57.632;11.962;2023-05-24T08:39:11;101209.34;;;19.90;52.86
13011;BME280;6786;57.632;11.962;2023-05-24T08:41:41;101200.56;;;19.88;52.92
13011;BME280;6786;57.632;11.962;2023-05-24T08:44:23;101210.47;;;19.88;52.84
13011;BME280;6786;57.632;11.962;2023-05-24T08:46:52;101178.94;;;19.69;52.77
13011;BME280;6786;57.632;11.962;2023-05-24T08:49:21;101213.97;;;19.88;52.88
13011;BME280;6786;57.632;11.962;2023-05-24T08:51:50;101218.38;;;19.89;52.87
13011;BME280;6786;57.632;11.962;2023-05-24T08:54:20;101221.06;;;19.89;53.03
13011;BME280;6786;57.632;11.962;2023-05-24T08:56:51;101227.38;;;19.88;53.08
13011;BME280;6786;57.632;11.962;2023-05-24T08:59:20;101223.75;;;19.89;52.99
13011;BME280;6786;57.632;11.962;2023-05-24T09:01:52;101217.16;;;19.82;53.00
13011;BME280;6786;57.632;11.962;2023-05-24T09:04:21;101232.50;;;19.91;53.04
13011;BME280;6786;57.632;11.962;2023-05-24T09:06:51;101237.88;;;19.91;53.07
13011;BME280;6786;57.632;11.962;2023-05-24T09:09:26;101197.25;;;19.64;53.23
13011;BME280;6786;57.632;11.962;2023-05-24T09:12:01;101201.66;;;19.65;53.10
13011;BME280;6786;57.632;11.962;2023-05-24T09:14:41;101231.56;;;19.81;53.27
13011;BME280;6786;57.632;11.962;2023-05-24T09:17:12;101235.25;;;19.80;53.22
13011;BME280;6786;57.632;11.962;2023-05-24T09:19:44;101171.50;;;19.41;53.26
13011;BME280;6786;57.632;11.962;2023-05-24T09:22:13;101233.53;;;19.79;53.26
13011;BME280;6786;57.632;11.962;2023-05-24T09:24:42;101253.50;;;19.86;53.29
13011;BME280;6786;57.632;11.962;2023-05-24T09:27:13;101253.50;;;19.86;53.30
13011;BME280;6786;57.632;11.962;2023-05-24T09:29:43;101238.44;;;19.74;53.31
13011;BME280;6786;57.632;11.962;2023-05-24T09:32:17;101241.13;;;19.74;53.39
13011;BME280;6786;57.632;11.962;2023-05-24T09:34:48;101263.50;;;19.84;53.32
13011;BME280;6786;57.632;11.962;2023-05-24T09:37:17;101263.25;;;19.87;53.22
13011;BME280;6786;57.632;11.962;2023-05-24T09:39:52;101253.66;;;19.85;53.41
13011;BME280;6786;57.632;11.962;2023-05-24T09:42:23;101255.34;;;19.86;53.36
13011;BME280;6786;57.632;11.962;2023-05-24T09:45:00;101252.28;;;19.90;53.59
13011;BME280;6786;57.632;11.962;2023-05-24T09:47:29;101244.97;;;19.92;53.33
13011;BME280;6786;57.632;11.962;2023-05-24T09:49:58;101242.28;;;19.92;53.12
13011;BME280;6786;57.632;11.962;2023-05-24T09:52:27;101248.59;;;19.91;53.27
13011;BME280;6786;57.632;11.962;2023-05-24T09:54:55;101243.22;;;19.91;53.25
13011;BME280;6786;57.632;11.962;2023-05-24T09:57:25;101255.69;;;19.92;53.28
13011;BME280;6786;57.632;11.962;2023-05-24T09:59:54;101250.31;;;19.92;53.43
13011;BME280;6786;57.632;11.962;2023-05-24T10:02:24;101257.38;;;19.93;53.31
13011;BME280;6786;57.632;11.962;2023-05-24T10:04:58;101263.59;;;19.94;53.41
13011;BME280;6786;57.632;11.962;2023-05-24T10:07:27;101253.97;;;19.91;53.37
13011;BME280;6786;57.632;11.962;2023-05-24T10:09:57;101258.63;;;19.89;53.52
13011;BME280;6786;57.632;11.962;2023-05-24T10:12:27;101235.88;;;19.73;53.55
13011;BME280;6786;57.632;11.962;2023-05-24T10:14:58;101270.56;;;19.85;53.51
13011;BME280;6786;57.632;11.962;2023-05-24T10:17:27;101270.56;;;19.85;53.52
13011;BME280;6786;57.632;11.962;2023-05-24T10:19:55;101258.16;;;19.84;53.49
13011;BME280;6786;57.632;11.962;2023-05-24T10:22:24;101254.72;;;19.82;53.42
13011;BME280;6786;57.632;11.962;2023-05-24T10:24:54;101260.09;;;19.82;53.60
13011;BME280;6786;57.632;11.962;2023-05-24T10:27:27;101261.22;;;19.80;53.52
13011;BME280;6786;57.632;11.962;2023-05-24T10:30:02;101264.88;;;19.79;53.53
13011;BME280;6786;57.632;11.962;2023-05-24T10:32:40;101265.50;;;19.71;53.44
13011;BME280;6786;57.632;11.962;2023-05-24T10:35:11;101259.66;;;19.66;53.54
13011;BME280;6786;57.632;11.962;2023-05-24T10:37:40;101259.75;;;19.76;53.55
13011;BME280;6786;57.632;11.962;2023-05-24T10:40:15;101266.22;;;19.73;53.77
13011;BME280;6786;57.632;11.962;2023-05-24T10:42:47;101279.63;;;19.73;53.62
13011;BME280;6786;57.632;11.962;2023-05-24T10:45:29;101282.31;;;19.73;54.24
13011;BME280;6786;57.632;11.962;2023-05-24T10:48:01;101267.97;;;19.63;53.48
13011;BME280;6786;57.632;11.962;2023-05-24T10:50:29;101275.25;;;19.72;53.55
13011;BME280;6786;57.632;11.962;2023-05-24T10:53:10;101280.63;;;19.72;54.06
13011;BME280;6786;57.632;11.962;2023-05-24T10:55:51;101284.28;;;19.71;53.96
13011;BME280;6786;57.632;11.962;2023-05-24T10:58:26;101284.28;;;19.71;53.69
13011;BME280;6786;57.632;11.962;2023-05-24T11:00:56;101286.22;;;19.69;53.61
13011;BME280;6786;57.632;11.962;2023-05-24T11:03:24;101255.31;;;19.54;53.51
13011;BME280;6786;57.632;11.962;2023-05-24T11:05:59;101288.91;;;19.69;53.70
13011;BME280;6786;57.632;11.962;2023-05-24T11:08:30;101275.75;;;19.66;53.53
13011;BME280;6786;57.632;11.962;2023-05-24T11:11:06;101240.22;;;19.42;53.97
13011;BME280;6786;57.632;11.962;2023-05-24T11:13:40;101279.16;;;19.68;53.68
13011;BME280;6786;57.632;11.962;2023-05-24T11:16:08;101282.69;;;19.69;53.49
13011;BME280;6786;57.632;11.962;2023-05-24T11:18:57;101257.28;;;19.52;53.43
13011;BME280;6786;57.632;11.962;2023-05-24T11:21:26;101279.16;;;19.68;53.51
13011;BME280;6786;57.632;11.962;2023-05-24T11:23:55;101253.84;;;19.50;53.49
13011;BME280;6786;57.632;11.962;2023-05-24T11:26:23;101277.19;;;19.70;53.57
13011;BME280;6786;57.632;11.962;2023-05-24T11:28:53;101276.94;;;19.73;53.58
13011;BME280;6786;57.632;11.962;2023-05-24T11:31:26;101266.47;;;19.70;53.76
13011;BME280;6786;57.632;11.962;2023-05-24T11:33:54;101264.66;;;19.71;53.73
13011;BME280;6786;57.632;11.962;2023-05-24T11:36:22;101271.56;;;19.73;53.72
13011;BME280;6786;57.632;11.962;2023-05-24T11:38:52;101262.81;;;19.71;53.68
13011;BME280;6786;57.632;11.962;2023-05-24T11:41:21;101242.63;;;19.56;53.66
13011;BME280;6786;57.632;11.962;2023-05-24T11:43:49;101258.41;;;19.70;53.84
13011;BME280;6786;57.632;11.962;2023-05-24T11:46:19;101268.19;;;19.71;53.82
13011;BME280;6786;57.632;11.962;2023-05-24T11:48:58;101254.16;;;19.79;54.15
13011;BME280;6786;57.632;11.962;2023-05-24T11:51:28;101253.91;;;19.82;54.14
13011;BME280;6786;57.632;11.962;2023-05-24T11:54:00;101252.78;;;19.84;53.94
13011;BME280;6786;57.632;11.962;2023-05-24T11:56:29;101245.97;;;19.80;54.17
13011;BME280;6786;57.632;11.962;2023-05-24T11:59:11;101263.25;;;19.87;54.29
13011;BME280;6786;57.632;11.962;2023-05-24T12:01:43;101263.25;;;19.87;54.16
13011;BME280;6786;57.632;11.962;2023-05-24T12:04:11;101257.41;;;19.82;54.16
13011;BME280;6786;57.632;11.962;2023-05-24T12:06:41;101275.69;;;19.88;54.23
13011;BME280;6786;57.632;11.962;2023-05-24T12:09:11;101274.72;;;19.89;54.13
13011;BME280;6786;57.632;11.962;2023-05-24T12:11:45;101261.81;;;19.83;54.44
13011;BME280;6786;57.632;11.962;2023-05-24T12:14:19;101272.88;;;19.90;54.28
13011;BME280;6786;57.632;11.962;2023-05-24T12:16:53;101266.69;;;19.89;54.47
13011;BME280;6786;57.632;11.962;2023-05-24T12:19:23;101203.91;;;19.49;54.27
13011;BME280;6786;57.632;11.962;2023-05-24T12:21:56;101273.72;;;19.90;54.23
13011;BME280;6786;57.632;11.962;2023-05-24T12:24:25;101268.38;;;19.90;54.28
13011;BME280;6786;57.632;11.962;2023-05-24T12:26:57;101265.69;;;19.90;54.39
13011;BME280;6786;57.632;11.962;2023-05-24T12:29:33;101268.25;;;19.92;54.48
13011;BME280;6786;57.632;11.962;2023-05-24T12:32:03;101276.28;;;19.92;54.36
13011;BME280;6786;57.632;11.962;2023-05-24T12:34:34;101270.06;;;19.91;54.38
13011;BME280;6786;57.632;11.962;2023-05-24T12:37:02;101277.41;;;19.89;54.30
13011;BME280;6786;57.632;11.962;2023-05-24T12:39:35;101217.75;;;19.54;54.03
13011;BME280;6786;57.632;11.962;2023-05-24T12:42:05;101281.03;;;19.88;54.37
13011;BME280;6786;57.632;11.962;2023-05-24T12:44:36;101270.00;;;19.82;54.25
13011;BME280;6786;57.632;11.962;2023-05-24T12:47:07;101286.41;;;19.88;54.38
13011;BME280;6786;57.632;11.962;2023-05-24T12:49:38;101246.00;;;19.69;54.49
13011;BME280;6786;57.632;11.962;2023-05-24T12:52:09;101275.69;;;19.88;54.30
13011;BME280;6786;57.632;11.962;2023-05-24T12:54:38;101272.03;;;19.89;54.27
13011;BME280;6786;57.632;11.962;2023-05-24T12:57:06;101274.25;;;19.84;54.29
13011;BME280;6786;57.632;11.962;2023-05-24T12:59:35;101279.09;;;19.90;54.40
13011;BME280;6786;57.632;11.962;2023-05-24T13:02:03;101278.22;;;19.90;54.54
13011;BME280;6786;57.632;11.962;2023-05-24T13:04:32;101279.09;;;19.90;54.45
13011;BME280;6786;57.632;11.962;2023-05-24T13:07:01;101268.88;;;19.84;54.46